Time;durP1;ratioP1;P1;durP2;ratioP2;P2;SDS_P1;SDS_P2;PMS_P1;PMS_P2;Temp;Humidity;BMP_temperature;BMP_pressure;BME280_temperature;BME280_humidity;BME280_pressure;Samples;Min_cycle;Max_cycle;Signal;HPM_P1;HPM_P2
2024/04/18 00:02:19;;;;;;;44.00;35.30;;;;;;;3.01;100.00;98129.33;109452;1254;60155;-73
2024/04/18 00:04:46;;;;;;;47.50;36.00;;;;;;;2.97;100.00;98128.98;109522;1253;60159;-73
2024/04/18 00:07:12;;;;;;;39.90;32.70;;;;;;;2.95;100.00;98126.47;109514;1254;59791;-72
2024/04/18 00:09:38;;;;;;;40.80;34.30;;;;;;;2.92;100.00;98127.47;109478;1254;59849;-71
2024/04/18 00:12:05;;;;;;;42.10;33.30;;;;;;;2.90;100.00;98127.39;109462;1253;59912;-71
2024/04/18 00:14:31;;;;;;;39.60;31.30;;;;;;;2.88;100.00;98123.09;109505;1253;59837;-72
2024/04/18 00:16:58;;;;;;;36.70;30.00;;;;;;;2.89;100.00;98123.75;109508;1253;59857;-72
2024/04/18 00:19:24;;;;;;;37.90;31.80;;;;;;;2.89;100.00;98123.55;109505;1253;60086;-72
2024/04/18 00:21:50;;;;;;;40.40;32.20;;;;;;;2.92;100.00;98126.09;109565;1252;59799;-72
2024/04/18 00:24:17;;;;;;;42.40;33.80;;;;;;;2.94;100.00;98125.79;109465;1254;60753;-73
2024/04/18 00:26:43;;;;;;;39.60;32.40;;;;;;;2.96;100.00;98125.69;109474;1256;59948;-71
2024/04/18 00:29:10;;;;;;;39.90;32.80;;;;;;;2.98;100.00;98125.77;109555;1252;59807;-71
2024/04/18 00:31:36;;;;;;;39.50;33.10;;;;;;;3.01;100.00;98121.96;109598;1256;59871;-72
2024/04/18 00:34:02;;;;;;;46.60;34.90;;;;;;;3.02;100.00;98123.09;109383;1254;60253;-72
2024/04/18 00:36:29;;;;;;;43.20;33.90;;;;;;;3.05;100.00;98121.71;109509;1254;59843;-72
2024/04/18 00:38:55;;;;;;;44.60;35.40;;;;;;;3.10;100.00;98123.77;109508;1252;59774;-73
2024/04/18 00:41:22;;;;;;;43.30;35.10;;;;;;;3.15;100.00;98125.11;109477;1254;59940;-72
2024/04/18 00:43:48;;;;;;;42.40;33.60;;;;;;;3.20;100.00;98120.46;109507;1253;60117;-72
2024/04/18 00:46:14;;;;;;;44.30;36.10;;;;;;;3.26;100.00;98124.89;109460;1254;59890;-71
2024/04/18 00:48:41;;;;;;;46.00;36.80;;;;;;;3.30;100.00;98120.98;109462;1254;60083;-72
2024/04/18 00:51:07;;;;;;;51.30;40.00;;;;;;;3.36;100.00;98125.79;109490;1253;59757;-71
2024/04/18 00:53:34;;;;;;;44.10;37.20;;;;;;;3.41;100.00;98124.13;109526;1252;60628;-72
2024/04/18 00:56:00;;;;;;;49.30;39.90;;;;;;;3.46;100.00;98128.39;107982;1251;1003022;-72
2024/04/18 00:58:28;;;;;;;56.80;44.60;;;;;;;3.51;100.00;98131.15;109435;1255;59793;-72
2024/04/18 01:00:55;;;;;;;52.30;40.80;;;;;;;3.56;100.00;98131.06;109517;1253;59895;-72
2024/04/18 01:03:22;;;;;;;50.50;40.80;;;;;;;3.60;100.00;98132.40;109481;1252;59982;-72
2024/04/18 01:05:49;;;;;;;50.30;38.50;;;;;;;3.64;100.00;98132.89;109505;1254;60185;-72
2024/04/18 01:08:15;;;;;;;48.10;39.70;;;;;;;3.69;100.00;98129.11;109498;1251;67008;-72
2024/04/18 01:10:42;;;;;;;47.30;38.90;;;;;;;3.73;100.00;98132.09;109555;1254;60097;-71
2024/04/18 01:13:08;;;;;;;49.90;39.10;;;;;;;3.75;100.00;98130.91;109482;1254;62521;-72
2024/04/18 01:15:34;;;;;;;47.20;37.10;;;;;;;3.79;100.00;98130.17;109514;1252;60079;-72
2024/04/18 01:18:01;;;;;;;45.20;37.70;;;;;;;3.82;100.00;98130.21;109547;1253;59820;-72
2024/04/18 01:20:27;;;;;;;43.60;36.10;;;;;;;3.84;100.00;98133.11;109499;1253;59842;-72
2024/04/18 01:22:55;;;;;;;44.00;36.30;;;;;;;3.85;100.00;98130.40;109472;1252;59849;-72
2024/04/18 01:25:21;;;;;;;44.40;37.30;;;;;;;3.87;100.00;98133.46;109512;1253;64445;-72
2024/04/18 01:27:47;;;;;;;44.70;35.60;;;;;;;3.88;100.00;98129.67;109480;1254;60074;-72
2024/04/18 01:30:14;;;;;;;38.80;32.00;;;;;;;3.89;100.00;98130.55;109527;1253;59827;-74
2024/04/18 01:32:40;;;;;;;45.10;35.00;;;;;;;3.88;100.00;98132.31;109511;1252;60007;-71
2024/04/18 01:35:07;;;;;;;39.00;33.80;;;;;;;3.89;100.00;98132.30;109589;1254;59751;-72
2024/04/18 01:37:33;;;;;;;42.50;34.60;;;;;;;3.88;100.00;98133.91;109469;1254;59844;-73
2024/04/18 01:39:59;;;;;;;39.00;33.90;;;;;;;3.87;100.00;98133.98;109476;1253;60129;-72
2024/04/18 01:42:26;;;;;;;43.10;34.20;;;;;;;3.85;100.00;98133.54;109518;1254;60004;-72
2024/04/18 01:44:52;;;;;;;45.20;34.90;;;;;;;3.84;100.00;98132.05;109503;1253;60033;-72
2024/04/18 01:47:19;;;;;;;41.50;35.20;;;;;;;3.82;100.00;98131.95;109216;1259;59907;-73
2024/04/18 01:49:45;;;;;;;45.10;34.60;;;;;;;3.81;100.00;98134.80;109543;1253;59883;-74
2024/04/18 01:52:11;;;;;;;42.10;35.10;;;;;;;3.79;100.00;98135.98;109483;1254;59738;-72
2024/04/18 01:54:37;;;;;;;41.00;35.30;;;;;;;3.77;100.00;98136.83;109480;1254;59909;-73
2024/04/18 01:57:04;;;;;;;43.20;36.40;;;;;;;3.75;100.00;98137.77;109529;1254;60053;-73
2024/04/18 01:59:30;;;;;;;40.60;34.70;;;;;;;3.74;100.00;98140.11;109491;1252;60209;-72
2024/04/18 02:01:58;;;;;;;47.10;35.10;;;;;;;3.73;100.00;98139.11;109452;1254;59959;-73
2024/04/18 02:04:27;;;;;;;43.70;37.00;;;;;;;3.72;100.00;98141.27;109498;1254;59807;-72
2024/04/18 02:06:54;;;;;;;45.10;36.80;;;;;;;3.72;100.00;98144.23;109480;1252;59742;-73
2024/04/18 02:09:21;;;;;;;46.80;36.80;;;;;;;3.72;100.00;98140.94;109541;1253;59756;-72
2024/04/18 02:11:47;;;;;;;47.80;38.20;;;;;;;3.72;100.00;98141.59;109484;1254;60017;-73
2024/04/18 02:14:14;;;;;;;44.30;37.50;;;;;;;3.74;100.00;98142.23;109470;1254;59903;-73
2024/04/18 02:16:40;;;;;;;46.20;36.70;;;;;;;3.75;100.00;98141.64;109465;1252;59849;-72
2024/04/18 02:19:06;;;;;;;43.70;34.10;;;;;;;3.76;100.00;98141.60;109478;1254;59856;-72
2024/04/18 02:21:33;;;;;;;44.70;35.10;;;;;;;3.76;100.00;98144.93;109497;1253;59809;-73
2024/04/18 02:23:59;;;;;;;41.70;34.30;;;;;;;3.75;100.00;98143.55;109513;1254;59873;-73
2024/04/18 02:26:25;;;;;;;43.90;34.50;;;;;;;3.74;100.00;98144.33;109461;1253;59891;-72
2024/04/18 02:28:52;;;;;;;40.70;35.40;;;;;;;3.72;100.00;98142.46;108703;1253;1002166;-72
2024/04/18 02:31:18;;;;;;;43.90;36.90;;;;;;;3.71;100.00;98143.42;109506;1252;60299;-72
2024/04/18 02:33:44;;;;;;;38.50;34.10;;;;;;;3.69;100.00;98143.56;109533;1254;59879;-73
2024/04/18 02:36:11;;;;;;;43.10;35.40;;;;;;;3.66;100.00;98143.52;109506;1253;59832;-71
2024/04/18 02:38:37;;;;;;;43.10;34.70;;;;;;;3.62;100.00;98147.45;109471;1253;59823;-73
2024/04/18 02:41:05;;;;;;;40.40;35.00;;;;;;;3.58;100.00;98145.70;109512;1252;59795;-71
2024/04/18 02:43:31;;;;;;;39.60;33.30;;;;;;;3.55;100.00;98145.89;109508;1253;59793;-71
2024/04/18 02:45:58;;;;;;;38.20;32.30;;;;;;;3.50;100.00;98146.47;109497;1252;60131;-73
2024/04/18 02:48:24;;;;;;;41.30;33.30;;;;;;;3.44;100.00;98145.73;109558;1253;59751;-72
2024/04/18 02:50:50;;;;;;;37.40;32.10;;;;;;;3.39;100.00;98149.35;109378;1253;59977;-72
2024/04/18 02:53:17;;;;;;;46.40;35.00;;;;;;;3.35;100.00;98149.68;109458;1253;59811;-73
2024/04/18 02:55:43;;;;;;;44.20;35.70;;;;;;;3.32;100.00;98149.84;109519;1252;59854;-72
2024/04/18 02:58:09;;;;;;;46.70;37.80;;;;;;;3.28;100.00;98150.20;109551;1253;59974;-72
2024/04/18 03:00:36;;;;;;;41.30;35.50;;;;;;;3.28;100.00;98147.73;109499;1252;59859;-72
2024/04/18 03:03:02;;;;;;;44.90;35.70;;;;;;;3.27;100.00;98149.04;109477;1253;59847;-72
2024/04/18 03:05:29;;;;;;;43.40;35.70;;;;;;;3.26;100.00;98147.85;109509;1253;60054;-72
2024/04/18 03:07:56;;;;;;;43.30;33.80;;;;;;;3.24;100.00;98151.30;109490;1252;60196;-72
2024/04/18 03:10:23;;;;;;;46.80;35.60;;;;;;;3.23;100.00;98152.73;109517;1252;66841;-71
2024/04/18 03:12:54;;;;;;;41.90;33.80;;;;;;;3.21;100.00;98152.67;109494;1252;59815;-71
2024/04/18 03:15:21;;;;;;;44.40;37.10;;;;;;;3.19;100.00;98151.92;109457;1254;62934;-73
2024/04/18 03:17:51;;;;;;;47.10;36.80;;;;;;;3.19;100.00;98152.30;109554;1253;59816;-73
2024/04/18 03:20:17;;;;;;;;;;;;;;;3.19;100.00;98151.95;109413;1251;59870;-71
2024/04/18 03:22:44;;;;;;;44.90;36.00;;;;;;;3.17;100.00;98149.91;109544;1253;59832;-72
2024/04/18 03:25:10;;;;;;;42.40;35.30;;;;;;;3.15;100.00;98149.67;109517;1251;59902;-72
2024/04/18 03:27:36;;;;;;;46.30;34.70;;;;;;;3.13;100.00;98147.66;109212;1254;60057;-72
2024/04/18 03:30:03;;;;;;;46.20;37.30;;;;;;;3.08;100.00;98149.99;109549;1253;59829;-72
2024/04/18 03:32:29;;;;;;;43.80;37.30;;;;;;;3.04;100.00;98148.79;109540;1254;60116;-72
2024/04/18 03:34:56;;;;;;;51.40;38.70;;;;;;;3.00;100.00;98148.45;109510;1253;59791;-74
2024/04/18 03:37:22;;;;;;;44.90;36.90;;;;;;;2.97;100.00;98152.52;109528;1252;60094;-72
2024/04/18 03:39:48;;;;;;;44.20;37.00;;;;;;;2.92;100.00;98154.11;109522;1252;59900;-72
2024/04/18 03:42:15;;;;;;;47.60;37.80;;;;;;;2.88;100.00;98153.48;109481;1254;59879;-72
2024/04/18 03:44:44;;;;;;;44.00;37.00;;;;;;;2.83;100.00;98156.52;109579;1253;59815;-71
2024/04/18 03:47:10;;;;;;;41.90;36.20;;;;;;;2.77;100.00;98154.70;109506;1252;67842;-72
2024/04/18 03:49:36;;;;;;;48.80;37.20;;;;;;;2.72;100.00;98159.84;109485;1253;59742;-72
2024/04/18 03:52:03;;;;;;;48.90;37.50;;;;;;;2.68;100.00;98162.86;109484;1253;60063;-72
2024/04/18 03:54:29;;;;;;;42.60;34.90;;;;;;;2.64;100.00;98164.27;109463;1253;59803;-72
2024/04/18 03:56:55;;;;;;;41.10;35.10;;;;;;;2.59;100.00;98165.18;108761;1253;1003226;-72
2024/04/18 03:59:22;;;;;;;40.60;34.60;;;;;;;2.56;100.00;98168.67;109503;1252;59988;-72
2024/04/18 04:01:48;;;;;;;40.20;33.80;;;;;;;2.54;100.00;98170.69;109505;1253;60257;-73
2024/04/18 04:04:14;;;;;;;41.00;32.90;;;;;;;2.51;100.00;98168.26;109513;1253;59854;-73
2024/04/18 04:06:43;;;;;;;43.90;35.20;;;;;;;2.51;100.00;98170.66;109481;1252;59841;-73
2024/04/18 04:09:09;;;;;;;44.40;36.00;;;;;;;2.67;100.00;98171.14;109481;1252;59776;-72
2024/04/18 04:11:35;;;;;;;41.90;33.50;;;;;;;2.89;100.00;98169.19;109359;1253;59935;-72
2024/04/18 04:14:02;;;;;;;36.70;32.70;;;;;;;3.15;100.00;98169.84;109466;1253;59781;-72
2024/04/18 04:16:28;;;;;;;37.60;33.20;;;;;;;3.56;100.00;98174.09;109217;1253;59861;-72
2024/04/18 04:18:55;;;;;;;38.20;31.50;;;;;;;3.95;100.00;98175.20;109488;1253;59894;-72
2024/04/18 04:21:22;;;;;;;36.80;30.50;;;;;;;4.22;100.00;98176.02;109504;1253;59723;-73
2024/04/18 04:23:48;;;;;;;31.20;27.80;;;;;;;4.46;100.00;98172.95;109518;1251;66508;-72
2024/04/18 04:26:15;;;;;;;32.00;28.50;;;;;;;4.76;100.00;98174.45;109495;1254;59880;-72
2024/04/18 04:28:41;;;;;;;31.80;28.70;;;;;;;4.99;100.00;98177.91;109516;1253;59862;-72
2024/04/18 04:31:07;;;;;;;29.90;26.90;;;;;;;5.21;100.00;98176.61;109466;1253;59767;-72
2024/04/18 04:33:34;;;;;;;29.50;26.40;;;;;;;5.48;100.00;98174.49;109504;1253;60675;-72
2024/04/18 04:36:00;;;;;;;27.70;24.80;;;;;;;5.80;100.00;98177.20;109506;1253;59746;-72
2024/04/18 04:38:26;;;;;;;28.90;25.80;;;;;;;6.03;100.00;98180.24;109484;1252;59837;-72
2024/04/18 04:40:53;;;;;;;27.20;24.40;;;;;;;5.95;100.00;98183.52;109497;1253;59833;-72
2024/04/18 04:43:19;;;;;;;28.40;25.40;;;;;;;5.56;100.00;98187.60;109507;1253;59924;-72
2024/04/18 04:45:46;;;;;;;31.90;26.70;;;;;;;5.20;100.00;98191.85;109469;1252;59996;-72
2024/04/18 04:48:12;;;;;;;30.30;26.30;;;;;;;4.99;100.00;98197.23;109482;1252;59825;-73
2024/04/18 04:50:40;;;;;;;29.30;26.00;;;;;;;4.90;100.00;98201.10;109530;1252;59745;-73
2024/04/18 04:53:07;;;;;;;29.80;25.90;;;;;;;4.86;100.00;98204.70;109449;1252;63764;-72
2024/04/18 04:55:33;;;;;;;31.30;27.80;;;;;;;4.86;100.00;98207.16;109422;1252;59826;-73
2024/04/18 04:58:00;;;;;;;35.10;27.60;;;;;;;4.93;100.00;98209.73;109379;1254;59863;-74
2024/04/18 05:00:26;;;;;;;33.20;27.00;;;;;;;5.01;100.00;98213.33;109425;1253;59831;-73
2024/04/18 05:02:55;;;;;;;28.10;25.10;;;;;;;5.06;100.00;98213.72;109431;1253;59885;-73
2024/04/18 05:05:22;;;;;;;31.60;27.20;;;;;;;5.12;100.00;98209.39;109407;1253;63938;-73
2024/04/18 05:07:49;;;;;;;30.40;27.20;;;;;;;5.20;100.00;98212.11;109392;1253;59801;-72
2024/04/18 05:10:16;;;;;;;31.60;24.70;;;;;;;5.32;100.00;98212.95;109429;1253;59744;-73
2024/04/18 05:12:42;;;;;;;27.90;24.80;;;;;;;5.55;100.00;98215.67;109444;1253;67982;-74
2024/04/18 05:15:09;;;;;;;25.70;23.10;;;;;;;6.13;100.00;98220.30;109425;1252;59736;-72
2024/04/18 05:17:35;;;;;;;24.80;22.30;;;;;;;6.47;100.00;98223.54;109413;1253;60171;-72
2024/04/18 05:20:01;;;;;;;25.30;22.80;;;;;;;6.61;100.00;98221.60;109407;1253;59864;-72
2024/04/18 05:22:27;;;;;;;24.90;22.20;;;;;;;6.81;100.00;98222.44;109470;1253;59840;-71
2024/04/18 05:24:54;;;;;;;25.20;22.50;;;;;;;6.98;100.00;98220.80;109412;1253;59977;-72
2024/04/18 05:27:21;;;;;;;24.00;21.50;;;;;;;6.99;100.00;98226.39;109446;1253;60680;-73
2024/04/18 05:32:32;;;;;;;22.80;20.30;;;;;;;7.11;100.00;98228.77;109422;1253;59873;-72
2024/04/18 05:34:58;;;;;;;22.50;18.30;;;;;;;7.16;100.00;98228.30;109393;1253;59749;-71
2024/04/18 05:37:25;;;;;;;22.60;20.20;;;;;;;7.32;100.00;98225.85;109410;1253;60085;-71
2024/04/18 05:39:52;;;;;;;23.60;20.20;;;;;;;7.33;100.00;98223.66;109403;1252;60125;-72
2024/04/18 05:42:18;;;;;;;22.50;20.00;;;;;;;7.27;100.00;98226.54;109426;1253;60044;-72
2024/04/18 05:44:44;;;;;;;21.70;19.40;;;;;;;7.13;100.00;98227.05;109103;1253;59873;-73
2024/04/18 05:47:11;;;;;;;23.10;20.80;;;;;;;6.97;100.00;98229.87;109424;1252;59938;-73
2024/04/18 05:49:37;;;;;;;23.70;21.20;;;;;;;6.82;100.00;98232.77;109434;1253;60002;-72
2024/04/18 05:52:03;;;;;;;25.00;21.70;;;;;;;6.69;100.00;98232.89;109157;1253;60086;-72
2024/04/18 05:54:30;;;;;;;25.80;23.00;;;;;;;6.62;100.00;98238.80;109380;1253;59867;-72
2024/04/18 05:56:57;;;;;;;23.50;21.10;;;;;;;6.59;100.00;98242.88;109405;1253;59741;-71
2024/04/18 05:59:23;;;;;;;25.20;22.30;;;;;;;6.63;100.00;98240.73;109463;1253;59871;-71
2024/04/18 06:01:49;;;;;;;23.70;21.30;;;;;;;6.71;100.00;98246.04;109398;1253;59822;-72
2024/04/18 06:04:16;;;;;;;25.70;22.60;;;;;;;6.72;100.00;98244.21;109392;1253;59886;-72
2024/04/18 06:06:42;;;;;;;24.70;22.00;;;;;;;6.71;100.00;98244.59;109372;1253;59927;-72
2024/04/18 06:09:08;;;;;;;25.00;22.00;;;;;;;6.65;100.00;98244.14;109362;1253;59789;-73
2024/04/18 06:11:42;;;;;;;25.50;22.80;;;;;;;6.60;100.00;98248.30;109393;1253;59839;-72
2024/04/18 06:14:11;;;;;;;26.10;22.90;;;;;;;6.56;100.00;98249.04;109334;1253;66519;-72
2024/04/18 06:16:37;;;;;;;26.70;24.00;;;;;;;6.64;100.00;98251.05;109390;1253;59852;-73
2024/04/18 06:19:04;;;;;;;27.30;24.50;;;;;;;6.70;100.00;98249.98;109355;1253;60156;-73
2024/04/18 06:21:30;;;;;;;29.80;26.60;;;;;;;6.78;100.00;98250.69;109334;1253;59883;-73
2024/04/18 06:23:57;;;;;;;26.80;24.00;;;;;;;6.88;100.00;98255.02;109382;1253;59691;-73
2024/04/18 06:26:23;;;;;;;28.90;25.80;;;;;;;6.93;100.00;98258.25;109370;1253;60128;-72
2024/04/18 06:28:49;;;;;;;27.20;24.40;;;;;;;6.90;100.00;98261.94;109109;1260;59978;-71
2024/04/18 06:31:16;;;;;;;30.70;27.30;;;;;;;6.85;100.00;98262.80;109404;1253;59872;-72
2024/04/18 06:33:43;;;;;;;29.80;26.10;;;;;;;6.82;100.00;98262.27;109323;1253;59769;-73
2024/04/18 06:36:10;;;;;;;29.90;26.40;;;;;;;6.81;100.00;98264.59;109363;1253;59829;-73
2024/04/18 06:38:37;;;;;;;30.40;27.30;;;;;;;6.76;100.00;98268.29;109391;1253;66623;-73
2024/04/18 06:41:06;;;;;;;30.60;27.50;;;;;;;6.67;100.00;98270.64;109384;1253;60063;-73
2024/04/18 06:43:33;;;;;;;32.00;28.50;;;;;;;6.71;100.00;98268.95;109334;1253;63726;-73
2024/04/18 06:45:59;;;;;;;32.00;28.60;;;;;;;6.72;100.00;98270.31;109352;1253;59866;-73
2024/04/18 06:48:26;;;;;;;33.40;29.50;;;;;;;6.78;100.00;98272.78;109317;1253;59761;-73
2024/04/18 06:50:52;;;;;;;36.60;29.80;;;;;;;6.84;100.00;98273.66;109394;1253;59856;-73
2024/04/18 06:53:18;;;;;;;32.90;29.10;;;;;;;6.86;100.00;98279.86;109387;1253;59830;-73
2024/04/18 06:55:45;;;;;;;33.20;29.50;;;;;;;6.85;100.00;98280.31;109378;1253;60055;-73
2024/04/18 06:58:11;;;;;;;33.10;29.60;;;;;;;6.92;100.00;98285.63;109339;1253;60049;-72
2024/04/18 07:00:38;;;;;;;35.70;30.90;;;;;;;6.96;100.00;98289.61;109387;1253;59832;-72
2024/04/18 07:03:11;;;;;;;34.30;30.40;;;;;;;6.91;100.00;98289.41;109354;1253;59700;-72
2024/04/18 07:05:39;;;;;;;33.30;29.80;;;;;;;6.89;100.00;98289.71;109124;1253;60152;-73
2024/04/18 07:08:05;;;;;;;33.40;29.80;;;;;;;6.93;100.00;98293.20;109410;1253;64054;-71
2024/04/18 07:10:33;;;;;;;33.80;30.30;;;;;;;7.01;100.00;98290.70;109405;1253;59824;-72
2024/04/18 07:12:59;;;;;;;35.30;31.50;;;;;;;7.06;100.00;98295.00;109395;1253;59687;-72
2024/04/18 07:15:25;;;;;;;34.40;30.70;;;;;;;7.11;100.00;98292.77;109385;1253;60221;-73
2024/04/18 07:17:54;;;;;;;35.50;31.90;;;;;;;7.19;100.00;98290.27;109428;1253;59830;-72
2024/04/18 07:20:21;;;;;;;33.50;30.00;;;;;;;7.23;100.00;98294.41;109409;1253;63805;-72
2024/04/18 07:22:47;;;;;;;34.90;31.20;;;;;;;7.30;100.00;98291.52;109397;1253;59997;-72
2024/04/18 07:25:14;;;;;;;35.20;31.60;;;;;;;7.40;100.00;98292.42;109426;1253;59795;-72
2024/04/18 07:27:40;;;;;;;33.90;30.50;;;;;;;7.46;100.00;98298.58;109439;1252;59902;-72
2024/04/18 07:30:08;;;;;;;34.20;30.80;;;;;;;7.48;100.00;98298.85;109154;1253;59986;-73
2024/04/18 07:32:34;;;;;;;32.90;29.50;;;;;;;7.55;100.00;98297.52;109370;1253;63798;-73
2024/04/18 07:35:00;;;;;;;33.30;29.80;;;;;;;7.67;100.00;98298.61;109212;1253;59929;-72
2024/04/18 07:37:27;;;;;;;31.70;28.50;;;;;;;7.86;100.00;98300.58;109433;1253;60746;-72
2024/04/18 07:39:54;;;;;;;33.90;30.30;;;;;;;7.89;100.00;98300.86;109422;1253;59846;-72
2024/04/18 07:42:20;;;;;;;30.90;27.70;;;;;;;8.05;100.00;98294.69;109379;1253;59805;-72
2024/04/18 07:44:47;;;;;;;29.40;26.50;;;;;;;8.17;100.00;98297.36;109384;1252;59840;-71
2024/04/18 07:47:14;;;;;;;30.30;27.20;;;;;;;8.21;100.00;98301.02;109435;1253;59784;-72
2024/04/18 07:49:40;;;;;;;30.20;27.30;;;;;;;8.20;100.00;98303.23;109413;1252;59639;-72
2024/04/18 07:52:10;;;;;;;29.90;26.80;;;;;;;8.13;100.00;98300.66;109050;1252;60096;-72
2024/04/18 07:54:37;;;;;;;28.60;25.70;;;;;;;8.06;100.00;98302.02;109397;1253;59856;-72
2024/04/18 07:57:03;;;;;;;29.50;26.40;;;;;;;8.06;100.00;98298.84;109373;1253;62518;-72
2024/04/18 07:59:30;;;;;;;30.70;26.90;;;;;;;8.11;100.00;98301.71;109421;1253;59856;-72
2024/04/18 08:01:56;;;;;;;30.70;26.60;;;;;;;8.13;100.00;98303.48;109381;1253;59796;-72
2024/04/18 08:04:24;;;;;;;33.00;28.70;;;;;;;8.16;100.00;98302.80;109360;1252;67698;-72
2024/04/18 08:06:52;;;;;;;49.10;39.20;;;;;;;8.18;100.00;98302.29;109400;1253;60309;-72
2024/04/18 08:09:18;;;;;;;34.00;30.50;;;;;;;8.21;100.00;98304.95;109407;1253;64069;-72
2024/04/18 08:11:44;;;;;;;30.60;27.40;;;;;;;8.29;100.00;98307.56;109432;1252;59765;-72
2024/04/18 08:14:10;;;;;;;30.50;27.30;;;;;;;8.34;100.00;98310.89;109378;1253;59822;-72
2024/04/18 08:16:37;;;;;;;30.40;27.30;;;;;;;8.38;100.00;98313.33;109414;1252;59859;-72
2024/04/18 08:19:03;;;;;;;33.70;30.20;;;;;;;8.45;100.00;98313.92;109401;1253;60286;-73
2024/04/18 08:21:29;;;;;;;33.60;30.20;;;;;;;8.58;100.00;98312.68;109067;1253;60146;-73
2024/04/18 08:23:57;;;;;;;30.10;26.90;;;;;;;8.67;100.00;98306.52;109365;1252;59775;-72
2024/04/18 08:26:23;;;;;;;34.20;30.60;;;;;;;8.74;100.00;98307.13;109037;1253;59853;-72
2024/04/18 08:28:50;;;;;;;31.50;28.30;;;;;;;8.78;100.00;98307.69;109410;1252;59956;-72
2024/04/18 08:31:16;;;;;;;33.00;29.50;;;;;;;8.83;100.00;98306.16;109433;1252;59814;-71
2024/04/18 08:33:42;;;;;;;31.80;28.50;;;;;;;8.82;100.00;98302.66;109449;1252;59800;-73
2024/04/18 08:36:08;;;;;;;31.30;28.10;;;;;;;8.88;100.00;98296.36;109397;1252;59719;-71
2024/04/18 08:38:35;;;;;;;33.60;28.80;;;;;;;9.00;100.00;98292.16;109420;1252;60136;-72
2024/04/18 08:41:10;;;;;;;33.70;29.90;;;;;;;9.13;100.00;98294.41;109418;1252;60159;-72
2024/04/18 08:43:36;;;;;;;31.90;28.10;;;;;;;9.30;100.00;98288.55;109130;1253;59867;-72
2024/04/18 08:46:04;;;;;;;29.30;26.20;;;;;;;9.46;100.00;98285.31;109387;1252;63788;-72
2024/04/18 08:48:35;;;;;;;33.30;27.80;;;;;;;9.53;100.00;98286.02;109360;1253;59798;-73
2024/04/18 08:51:02;;;;;;;35.00;26.70;;;;;;;9.64;100.00;98287.27;109385;1252;59668;-72
2024/04/18 08:53:29;;;;;;;29.60;24.80;;;;;;;9.82;100.00;98282.38;109478;1254;60557;-73
2024/04/18 08:55:57;;;;;;;28.50;25.60;;;;;;;10.14;100.00;98279.95;109512;1252;60012;-72
2024/04/18 08:58:23;;;;;;;27.20;24.40;;;;;;;10.57;100.00;98280.59;109472;1252;62626;-72
2024/04/18 09:00:49;;;;;;;25.70;23.20;;;;;;;10.95;100.00;98278.17;109486;1251;59845;-72
2024/04/18 09:03:16;;;;;;;26.20;23.50;;;;;;;11.21;100.00;98282.80;109460;1253;59892;-72
2024/04/18 09:05:44;;;;;;;25.20;22.70;;;;;;;11.46;100.00;98281.15;109499;1253;67726;-72
2024/04/18 09:08:12;;;;;;;24.40;22.00;;;;;;;11.89;100.00;98280.95;109530;1253;60020;-71
2024/04/18 09:10:40;;;;;;;24.40;22.00;;;;;;;12.22;100.00;98280.68;109488;1253;62753;-72
2024/04/18 09:13:06;;;;;;;24.20;21.80;;;;;;;12.09;100.00;98286.40;109528;1253;59776;-71
2024/04/18 09:15:33;;;;;;;21.90;19.80;;;;;;;11.56;100.00;98293.13;109517;1252;59665;-71
2024/04/18 09:18:00;;;;;;;24.60;22.10;;;;;;;11.32;100.00;98289.56;109468;1253;59920;-72
2024/04/18 09:20:27;;;;;;;23.60;20.60;;;;;;;11.44;100.00;98284.14;109503;1253;59934;-73
2024/04/18 09:22:53;;;;;;;19.40;17.40;;;;;;;11.39;100.00;98287.73;109524;1252;64081;-73
2024/04/18 09:25:20;;;;;;;27.80;20.60;;;;;;;11.55;100.00;98281.58;109500;1253;59780;-73
2024/04/18 09:27:47;;;;;;;20.90;18.90;;;;;;;11.83;100.00;98284.28;109501;1252;59799;-73
2024/04/18 09:30:14;;;;;;;19.50;17.80;;;;;;;11.89;100.00;98284.36;109499;1252;66138;-73
2024/04/18 09:32:41;;;;;;;22.60;18.80;;;;;;;11.99;100.00;98278.88;109416;1254;60013;-73
2024/04/18 09:35:09;;;;;;;17.40;15.70;;;;;;;12.30;100.00;98283.37;109511;1252;64053;-73
2024/04/18 09:37:39;;;;;;;16.70;15.20;;;;;;;12.42;100.00;98281.34;109501;1252;60090;-72
2024/04/18 09:40:11;;;;;;;21.00;19.00;;;;;;;12.50;100.00;98281.16;109537;1253;59569;-70
2024/04/18 09:43:07;;;;;;;18.90;17.00;;;;;;;12.32;100.00;98281.81;109491;1253;66249;-72
2024/04/18 09:45:43;;;;;;;19.10;17.20;;;;;;;12.22;100.00;98276.55;108836;1260;60169;-73
2024/04/18 09:48:09;;;;;;;19.60;17.70;;;;;;;12.53;100.00;98272.81;108852;1260;62783;-72
2024/04/18 09:50:37;;;;;;;16.20;14.70;;;;;;;12.77;100.00;98270.02;108827;1260;59852;-72
2024/04/18 09:53:03;;;;;;;15.10;13.80;;;;;;;12.58;100.00;98272.56;108838;1261;59946;-74
2024/04/18 09:55:32;;;;;;;15.60;14.10;;;;;;;12.18;100.00;98269.83;108884;1260;66879;-73
2024/04/18 09:57:58;;;;;;;16.90;15.10;;;;;;;11.93;100.00;98263.73;108897;1260;60216;-72
2024/04/18 10:00:25;;;;;;;15.20;13.70;;;;;;;11.79;100.00;98261.81;108891;1260;62499;-72
2024/04/18 10:02:53;;;;;;;15.70;14.10;;;;;;;11.72;100.00;98261.73;108827;1260;59937;-72
2024/04/18 10:05:21;;;;;;;16.70;15.10;;;;;;;11.65;100.00;98260.48;108829;1260;59865;-73
2024/04/18 10:07:51;;;;;;;16.50;14.60;;;;;;;11.68;100.00;98259.70;108837;1260;66639;-74
2024/04/18 10:10:19;;;;;;;14.90;13.50;;;;;;;11.81;100.00;98263.33;108849;1260;60133;-71
2024/04/18 10:12:46;;;;;;;15.20;13.60;;;;;;;12.08;100.00;98264.41;108836;1260;62519;-72
2024/04/18 10:15:19;;;;;;;16.10;14.60;;;;;;;12.42;100.00;98262.55;108833;1260;59996;-73
2024/04/18 10:17:46;;;;;;;14.70;13.30;;;;;;;12.67;100.00;98259.91;108890;1260;59933;-76
2024/04/18 10:20:14;;;;;;;16.40;13.10;;;;;;;13.00;100.00;98254.13;108834;1260;66900;-73
2024/04/18 10:22:40;;;;;;;13.80;12.40;;;;;;;13.07;100.00;98248.88;109190;1253;59934;-72
2024/04/18 10:25:19;;;;;;;13.00;11.80;;;;;;;13.01;100.00;98250.86;109469;1253;59862;-72
2024/04/18 10:27:46;;;;;;;13.70;10.70;;;;;;;12.83;100.00;98255.10;109530;1252;59935;-73
2024/04/18 10:30:16;;;;;;;12.60;10.20;;;;;;;12.51;100.00;98263.80;109523;1252;59909;-71
2024/04/18 10:32:44;;;;;;;;;;;;;;;12.22;100.00;98264.29;109495;1252;66513;-74
2024/04/18 10:35:10;;;;;;;8.60;7.70;;;;;;;11.74;100.00;98265.45;109540;1253;60149;-73
2024/04/18 10:37:37;;;;;;;9.60;8.30;;;;;;;11.49;100.00;98264.71;109525;1253;59842;-72
2024/04/18 10:40:05;;;;;;;13.90;12.50;;;;;;;11.59;100.00;98261.74;109490;1253;59832;-73
2024/04/18 10:42:37;;;;;;;16.20;14.70;;;;;;;11.72;100.00;98264.96;109540;1253;59704;-72
2024/04/18 10:45:04;;;;;;;15.50;14.10;;;;;;;11.61;100.00;98271.02;109456;1253;66612;-72
2024/04/18 10:47:31;;;;;;;15.10;13.70;;;;;;;11.45;100.00;98276.91;109515;1254;61001;-74
2024/04/18 10:49:58;;;;;;;14.50;13.10;;;;;;;11.31;100.00;98278.59;109499;1252;62631;-71
2024/04/18 10:52:24;;;;;;;14.10;12.80;;;;;;;11.24;100.00;98281.68;109532;1252;60462;-71
2024/04/18 10:54:50;;;;;;;12.60;11.40;;;;;;;11.28;100.00;98286.64;109511;1253;59907;-72
2024/04/18 10:57:18;;;;;;;12.20;10.80;;;;;;;11.44;100.00;98278.48;109507;1252;59930;-73
2024/04/18 10:59:46;;;;;;;11.90;10.70;;;;;;;11.60;100.00;98277.27;109535;1251;59831;-72
2024/04/18 11:02:13;;;;;;;7.60;7.00;;;;;;;11.75;100.00;98277.83;109483;1252;62605;-72
2024/04/18 11:04:43;;;;;;;8.30;7.60;;;;;;;11.82;100.00;98282.21;109521;1253;59817;-75
2024/04/18 11:07:10;;;;;;;11.30;10.20;;;;;;;11.92;100.00;98284.84;109497;1252;59658;-72
2024/04/18 11:09:39;;;;;;;10.60;9.60;;;;;;;11.88;100.00;98282.86;109256;1257;66843;-74
2024/04/18 11:12:07;;;;;;;6.50;5.30;;;;;;;11.71;100.00;98283.13;109518;1255;59795;-72